createdAt,value
2022-09-10T00:00:19.194Z,68.33
2022-09-10T00:02:46.162Z,68.20
2022-09-10T00:05:13.651Z,68.41
2022-09-10T00:07:40.672Z,68.30
2022-09-10T00:10:08.651Z,68.08
2022-09-10T00:12:36.171Z,68.05
2022-09-10T00:15:05.931Z,68.25
2022-09-10T00:17:33.211Z,68.18
2022-09-10T00:20:00.171Z,68.09
2022-09-10T00:22:27.193Z,68.16
2022-09-10T00:24:57.893Z,67.89
2022-09-10T00:27:24.910Z,67.87
2022-09-10T00:29:53.651Z,68.27
2022-09-10T00:32:22.110Z,68.39
2022-09-10T00:34:49.211Z,68.30
2022-09-10T00:37:16.571Z,68.43
2022-09-10T00:39:43.576Z,68.44
2022-09-10T00:42:12.293Z,68.57
2022-09-10T00:44:41.915Z,68.92
2022-09-10T00:47:27.311Z,69.06
2022-09-10T00:50:03.898Z,69.15
2022-09-10T00:52:31.431Z,68.69
2022-09-10T00:54:59.992Z,68.70
2022-09-10T00:57:29.151Z,68.72
2022-09-10T01:00:03.713Z,68.30
2022-09-10T01:02:30.811Z,67.83
2022-09-10T01:05:01.071Z,67.56
2022-09-10T01:07:30.491Z,67.22
2022-09-10T01:10:00.061Z,67.11
2022-09-10T01:12:44.732Z,67.41
2022-09-10T01:15:43.093Z,67.32
2022-09-10T01:18:19.431Z,67.79
2022-09-10T01:20:56.850Z,67.79
2022-09-10T01:23:50.058Z,68.43
2022-09-10T01:27:08.641Z,67.96
2022-09-10T01:29:48.352Z,67.41
2022-09-10T01:32:21.400Z,67.55
2022-09-10T01:35:00.831Z,67.57
2022-09-10T01:37:30.831Z,67.84
2022-09-10T01:40:02.085Z,67.39
2022-09-10T01:42:33.076Z,67.33
2022-09-10T01:45:01.291Z,67.63
2022-09-10T01:48:15.731Z,67.34
2022-09-10T01:50:57.372Z,67.73
2022-09-10T01:54:01.631Z,67.59
2022-09-10T01:56:41.073Z,67.73
2022-09-10T01:59:36.752Z,67.35
2022-09-10T02:02:29.111Z,68.01
2022-09-10T02:04:58.171Z,68.30
2022-09-10T02:07:26.791Z,68.31
2022-09-10T02:09:55.791Z,68.26
2022-09-10T02:12:24.832Z,67.98
2022-09-10T02:15:12.912Z,67.56
2022-09-10T02:17:59.053Z,67.86
2022-09-10T02:20:27.991Z,67.27
2022-09-10T02:22:58.922Z,67.50
2022-09-10T02:25:32.831Z,67.74
2022-09-10T02:28:03.414Z,68.04
2022-09-10T02:30:30.752Z,67.95
2022-09-10T02:32:57.790Z,67.55
2022-09-10T02:35:25.551Z,67.77
2022-09-10T02:37:53.671Z,67.97
2022-09-10T02:40:20.671Z,67.75
2022-09-10T02:42:48.218Z,67.22
2022-09-10T02:45:20.710Z,66.99
2022-09-10T02:47:49.071Z,66.51
2022-09-10T02:50:17.692Z,66.63
2022-09-10T02:52:46.412Z,66.98
2022-09-10T02:55:14.280Z,66.54
2022-09-10T02:57:42.571Z,66.36
2022-09-10T03:00:11.217Z,66.06
2022-09-10T03:02:38.340Z,66.39
2022-09-10T03:05:08.091Z,66.35
2022-09-10T03:07:35.151Z,66.15
2022-09-10T03:10:02.257Z,65.67
2022-09-10T03:12:29.371Z,65.98
2022-09-10T03:14:58.037Z,65.50
2022-09-10T03:17:26.151Z,65.56
2022-09-10T03:19:53.071Z,65.93
2022-09-10T03:22:22.051Z,65.73
2022-09-10T03:24:49.059Z,66.02
2022-09-10T03:27:18.351Z,66.03
2022-09-10T03:29:45.550Z,66.21
2022-09-10T03:32:14.093Z,66.08
2022-09-10T03:34:41.411Z,65.64
2022-09-10T03:37:08.471Z,65.41
2022-09-10T03:39:36.199Z,65.90
2022-09-10T03:42:05.491Z,66.69
2022-09-10T03:44:33.870Z,66.36
2022-09-10T03:47:02.051Z,67.06
2022-09-10T03:49:29.251Z,66.83
2022-09-10T03:51:56.391Z,66.98
2022-09-10T03:54:24.751Z,67.43
2022-09-10T03:56:51.859Z,67.49
2022-09-10T03:59:19.331Z,67.10
2022-09-10T04:01:47.432Z,67.29
2022-09-10T04:04:15.193Z,67.24
2022-09-10T04:06:42.211Z,67.02
2022-09-10T04:09:09.451Z,66.69
2022-09-10T04:11:36.571Z,66.89
2022-09-10T04:14:03.691Z,66.58
2022-09-10T04:16:31.776Z,66.61
2022-09-10T04:18:58.751Z,66.90
2022-09-10T04:21:25.952Z,67.02
2022-09-10T04:23:57.052Z,66.58
2022-09-10T04:26:25.437Z,66.37
2022-09-10T04:28:53.668Z,65.93
2022-09-10T04:31:21.435Z,66.60
2022-09-10T04:33:49.946Z,66.51
2022-09-10T04:36:21.224Z,66.03
2022-09-10T04:38:48.596Z,65.63
2022-09-10T04:41:19.697Z,66.10
2022-09-10T04:43:47.924Z,66.17
2022-09-10T04:46:15.493Z,66.17
2022-09-10T04:48:43.354Z,65.71
2022-09-10T04:51:17.779Z,65.84
2022-09-10T04:53:47.864Z,66.09
2022-09-10T04:56:15.869Z,65.99
2022-09-10T04:58:44.480Z,65.75
2022-09-10T05:01:13.376Z,66.11
2022-09-10T05:03:42.326Z,65.83
2022-09-10T05:06:09.700Z,66.09
2022-09-10T05:08:37.103Z,66.63
2022-09-10T05:11:05.348Z,67.05
2022-09-10T05:13:33.191Z,66.46
2022-09-10T05:16:01.813Z,66.23
2022-09-10T05:18:31.449Z,66.58
2022-09-10T05:20:58.614Z,66.58
2022-09-10T05:23:27.450Z,66.86
2022-09-10T05:25:56.977Z,65.79
2022-09-10T05:28:25.045Z,65.03
2022-09-10T05:30:53.028Z,63.85
2022-09-10T05:33:23.263Z,63.14
2022-09-10T05:35:53.383Z,63.15
2022-09-10T05:38:21.803Z,62.53
2022-09-10T05:40:50.575Z,62.25
2022-09-10T05:43:17.564Z,61.49
2022-09-10T05:45:45.627Z,61.15
2022-09-10T05:48:13.457Z,61.23
2022-09-10T05:50:41.195Z,61.33
2022-09-10T05:53:10.224Z,61.17
2022-09-10T05:55:37.994Z,60.04
2022-09-10T05:58:06.514Z,60.66
2022-09-10T06:00:36.758Z,60.53
2022-09-10T06:03:05.636Z,61.01
2022-09-10T06:05:38.721Z,61.13
2022-09-10T06:08:08.721Z,61.54
2022-09-10T06:10:39.645Z,61.35
2022-09-10T06:13:07.037Z,61.47
2022-09-10T06:15:35.949Z,61.41
2022-09-10T06:18:03.303Z,61.24
2022-09-10T06:23:18.445Z,60.83
2022-09-10T06:25:48.695Z,60.64
2022-09-10T06:28:16.235Z,60.47
2022-09-10T06:30:43.235Z,60.64
2022-09-10T06:33:10.833Z,61.12
2022-09-10T06:35:38.085Z,60.69
2022-09-10T06:38:05.305Z,60.58
2022-09-10T06:40:34.456Z,59.54
2022-09-10T06:43:02.356Z,59.40
2022-09-10T06:45:48.010Z,59.09
2022-09-10T06:48:50.263Z,58.55
2022-09-10T06:51:19.694Z,58.63
2022-09-10T06:53:47.097Z,58.41
2022-09-10T06:56:18.312Z,58.09
2022-09-10T06:58:45.774Z,57.98
2022-09-10T07:01:24.050Z,58.01
2022-09-10T07:03:59.348Z,58.20
2022-09-10T07:06:29.117Z,57.53
2022-09-10T07:09:04.960Z,57.76
2022-09-10T07:11:41.366Z,57.93
2022-09-10T07:14:15.188Z,56.88
2022-09-10T07:16:44.618Z,55.35
2022-09-10T07:19:17.913Z,54.56
2022-09-10T07:21:47.202Z,53.15
2022-09-10T07:24:16.329Z,52.91
2022-09-10T07:27:01.653Z,53.21
2022-09-10T07:29:31.460Z,52.36
2022-09-10T07:31:59.525Z,52.14
2022-09-10T07:34:27.379Z,51.60
2022-09-10T07:36:56.374Z,51.65
2022-09-10T07:39:25.892Z,54.31
2022-09-10T07:41:54.045Z,54.98
2022-09-10T07:44:26.462Z,54.69
2022-09-10T07:46:56.168Z,53.79
2022-09-10T07:49:23.157Z,51.41
2022-09-10T07:51:57.682Z,51.73
2022-09-10T07:54:29.686Z,52.72
2022-09-10T07:56:57.775Z,51.20
2022-09-10T07:59:26.836Z,50.85
2022-09-10T08:02:01.781Z,51.32
2022-09-10T08:04:36.690Z,49.57
2022-09-10T08:07:07.006Z,50.91
2022-09-10T08:09:36.889Z,50.14
2022-09-10T08:12:07.780Z,48.97
2022-09-10T08:14:35.297Z,48.92
2022-09-10T08:17:02.357Z,48.79
2022-09-10T08:19:30.304Z,48.00
2022-09-10T08:21:57.219Z,48.14
2022-09-10T08:24:31.464Z,48.02
2022-09-10T08:26:58.750Z,48.47
2022-09-10T08:29:26.488Z,47.32
2022-09-10T08:31:53.927Z,48.12
2022-09-10T08:34:29.124Z,47.38
2022-09-10T08:37:04.016Z,46.80
2022-09-10T08:39:34.454Z,46.50
2022-09-10T08:42:02.293Z,46.54
2022-09-10T08:44:50.494Z,46.78
2022-09-10T08:47:54.985Z,45.50
2022-09-10T08:50:21.965Z,45.23
2022-09-10T08:53:00.615Z,43.39
2022-09-10T08:55:38.144Z,44.51
2022-09-10T08:58:07.684Z,45.67
2022-09-10T09:00:38.615Z,45.36
2022-09-10T09:03:18.491Z,44.74
2022-09-10T09:05:49.716Z,43.77
2022-09-10T09:08:26.103Z,44.17
2022-09-10T09:11:02.473Z,43.91
2022-09-10T09:13:46.084Z,43.12
2022-09-10T09:16:32.476Z,43.16
2022-09-10T09:19:23.444Z,43.68
2022-09-10T09:21:55.986Z,43.02
2022-09-10T09:24:40.761Z,41.29
2022-09-10T09:27:17.003Z,41.25
2022-09-10T09:30:07.213Z,40.59
2022-09-10T09:32:42.766Z,40.56
2022-09-10T09:35:29.026Z,39.61
2022-09-10T09:38:23.955Z,40.58
2022-09-10T09:40:56.494Z,40.80
2022-09-10T09:44:03.493Z,38.64
2022-09-10T09:46:33.053Z,38.23
2022-09-10T09:49:02.792Z,35.79
2022-09-10T09:51:35.958Z,36.14
2022-09-10T09:54:46.512Z,36.16
2022-09-10T09:56:59.964Z,35.86
2022-09-10T09:59:35.182Z,34.98
2022-09-10T10:02:11.601Z,33.33
2022-09-10T10:04:42.407Z,34.07
2022-09-10T10:07:10.364Z,32.49
2022-09-10T10:09:44.354Z,33.70
2022-09-10T10:12:22.455Z,32.45
2022-09-10T10:14:50.065Z,32.90
2022-09-10T10:17:37.338Z,31.50
2022-09-10T10:20:09.099Z,32.36
2022-09-10T10:22:38.543Z,32.32
2022-09-10T10:25:27.986Z,32.13
2022-09-10T10:27:54.989Z,32.44
2022-09-10T10:30:25.151Z,32.24
2022-09-10T10:32:56.369Z,31.47
2022-09-10T10:35:35.412Z,31.40
2022-09-10T10:38:29.263Z,31.53
2022-09-10T10:41:05.044Z,31.79
2022-09-10T10:44:10.495Z,31.48
2022-09-10T10:46:54.143Z,32.89
2022-09-10T10:49:33.431Z,32.76
2022-09-10T10:52:08.872Z,32.33
2022-09-10T10:54:54.692Z,31.87
2022-09-10T10:57:43.448Z,30.51
2022-09-10T11:00:13.897Z,29.02
2022-09-10T11:13:34.195Z,27.11
2022-09-10T11:16:07.135Z,27.91
2022-09-10T11:18:45.155Z,26.54
2022-09-10T11:21:35.184Z,26.55
2022-09-10T11:24:25.915Z,25.82
2022-09-10T11:27:14.756Z,26.03
2022-09-10T11:29:55.156Z,26.43
2022-09-10T11:32:58.838Z,26.08
2022-09-10T11:35:34.324Z,24.86
2022-09-10T11:38:20.895Z,25.73
2022-09-10T11:40:56.475Z,24.63
2022-09-10T11:43:40.078Z,24.95
2022-09-10T11:46:25.520Z,25.64
2022-09-10T11:49:23.155Z,25.85
2022-09-10T11:51:51.472Z,25.27
2022-09-10T11:54:34.747Z,24.23
2022-09-10T11:57:10.134Z,24.09
2022-09-10T11:59:59.624Z,24.04
2022-09-10T12:02:57.667Z,24.47
2022-09-10T12:05:49.487Z,23.51
2022-09-10T12:08:25.309Z,22.29
2022-09-10T12:11:30.059Z,22.72
2022-09-10T12:13:57.803Z,23.08
2022-09-10T12:16:35.362Z,24.22
2022-09-10T12:19:05.824Z,24.70
2022-09-10T12:21:49.563Z,24.38
2022-09-10T12:24:28.205Z,25.29
2022-09-10T12:26:55.903Z,26.40
2022-09-10T12:29:34.901Z,26.91
2022-09-10T12:32:07.961Z,28.22
2022-09-10T12:34:36.376Z,28.43
2022-09-10T12:37:03.463Z,30.29
2022-09-10T12:39:31.505Z,30.92
2022-09-10T12:42:01.365Z,31.42
2022-09-10T12:44:34.990Z,32.47
2022-09-10T12:47:14.125Z,32.28
2022-09-10T12:49:55.150Z,32.79
2022-09-10T12:52:52.789Z,33.23
2022-09-10T12:55:38.261Z,33.79
2022-09-10T12:58:24.735Z,34.19
2022-09-10T13:00:54.437Z,35.03
2022-09-10T13:03:23.968Z,34.97
2022-09-10T13:05:54.503Z,35.53
2022-09-10T13:08:28.227Z,35.33
2022-09-10T13:11:03.114Z,36.26
2022-09-10T13:13:41.231Z,36.11
2022-09-10T13:16:16.049Z,34.37
2022-09-10T13:18:43.682Z,31.84
2022-09-10T13:21:25.645Z,31.42
2022-09-10T13:23:54.383Z,30.83
2022-09-10T13:26:39.505Z,30.75
2022-09-10T13:29:26.494Z,30.57
2022-09-10T13:32:14.946Z,30.54
2022-09-10T13:35:10.608Z,31.16
2022-09-10T13:38:02.475Z,31.51
2022-09-10T13:40:32.135Z,30.77
2022-09-10T13:43:25.354Z,29.44
2022-09-10T13:46:00.785Z,29.82
2022-09-10T13:48:34.905Z,28.34
2022-09-10T13:51:13.824Z,30.07
2022-09-10T13:53:44.236Z,29.73
2022-09-10T13:56:22.974Z,30.27
2022-09-10T13:58:52.434Z,31.59
2022-09-10T14:01:19.378Z,33.45
2022-09-10T14:03:46.434Z,35.22
2022-09-10T14:06:22.284Z,35.57
2022-09-10T14:08:58.335Z,36.55
2022-09-10T14:11:28.448Z,37.18
2022-09-10T14:14:03.524Z,37.89
2022-09-10T14:16:41.087Z,38.80
2022-09-10T14:19:16.753Z,40.67
2022-09-10T14:21:44.011Z,40.89
2022-09-10T14:24:48.286Z,41.03
2022-09-10T14:27:24.164Z,41.45
2022-09-10T14:29:51.688Z,41.82
2022-09-10T14:32:26.185Z,41.92
2022-09-10T14:34:53.187Z,42.19
2022-09-10T14:37:38.744Z,42.46
2022-09-10T14:40:18.737Z,42.26
2022-09-10T14:42:48.274Z,42.40
2022-09-10T14:45:38.444Z,42.63
2022-09-10T14:48:06.736Z,43.10
2022-09-10T14:50:34.963Z,42.84
2022-09-10T14:53:01.964Z,42.07
2022-09-10T14:55:32.570Z,42.39
2022-09-10T14:57:59.997Z,42.43
2022-09-10T15:00:27.368Z,41.83
2022-09-10T15:02:57.497Z,42.65
2022-09-10T15:05:24.902Z,43.13
2022-09-10T15:07:51.874Z,43.12
2022-09-10T15:10:18.897Z,43.22
2022-09-10T15:12:49.987Z,43.42
2022-09-10T15:15:18.306Z,44.76
2022-09-10T15:17:45.550Z,43.92
2022-09-10T15:20:14.748Z,44.24
2022-09-10T15:22:41.816Z,44.29
2022-09-10T15:25:28.515Z,43.90
2022-09-10T15:27:55.713Z,44.28
2022-09-10T15:30:25.584Z,44.65
2022-09-10T15:32:54.631Z,45.41
2022-09-10T15:35:23.546Z,45.67
2022-09-10T15:37:51.697Z,46.53
2022-09-10T15:40:18.924Z,46.69
2022-09-10T15:42:45.891Z,48.14
2022-09-10T15:45:13.125Z,47.37
2022-09-10T15:47:42.315Z,47.35
2022-09-10T15:50:11.415Z,46.81
2022-09-10T15:52:38.994Z,46.35
2022-09-10T15:55:07.168Z,46.72
2022-09-10T15:57:34.053Z,46.84
2022-09-10T16:00:01.946Z,47.45
2022-09-10T16:02:31.256Z,49.28
2022-09-10T16:04:58.214Z,49.25
2022-09-10T16:07:25.184Z,48.70
2022-09-10T16:09:52.336Z,49.28
2022-09-10T16:12:19.825Z,48.46
2022-09-10T16:14:46.945Z,50.01
2022-09-10T16:17:17.513Z,50.42
2022-09-10T16:19:44.395Z,48.91
2022-09-10T16:22:11.454Z,50.47
2022-09-10T16:24:38.487Z,50.50
2022-09-10T16:27:05.482Z,51.03
2022-09-10T16:29:35.456Z,51.29
2022-09-10T16:32:02.685Z,51.27
2022-09-10T16:34:31.014Z,52.02
2022-09-10T16:36:58.104Z,52.51
2022-09-10T16:39:25.086Z,52.91
2022-09-10T16:41:52.126Z,52.19
2022-09-10T16:44:19.569Z,51.80
2022-09-10T16:46:47.414Z,51.54
2022-09-10T16:49:17.426Z,52.09
2022-09-10T16:51:46.438Z,52.73
2022-09-10T16:54:14.617Z,52.80
2022-09-10T16:56:45.288Z,52.33
2022-09-10T16:59:15.365Z,52.19
2022-09-10T17:01:47.996Z,52.00
2022-09-10T17:04:22.343Z,51.85
2022-09-10T17:06:51.762Z,51.66
2022-09-10T17:09:18.885Z,51.73
2022-09-10T17:11:45.835Z,51.39
2022-09-10T17:14:12.776Z,51.21
2022-09-10T17:16:41.577Z,51.71
2022-09-10T17:19:20.498Z,51.06
2022-09-10T17:21:53.279Z,50.93
2022-09-10T17:24:22.986Z,50.59
2022-09-10T17:26:51.257Z,50.25
2022-09-10T17:29:23.676Z,49.71
2022-09-10T17:31:57.703Z,49.36
2022-09-10T17:34:25.395Z,48.85
2022-09-10T17:36:52.385Z,49.35
2022-09-10T17:39:19.515Z,49.15
2022-09-10T17:41:46.666Z,49.37
2022-09-10T17:44:14.074Z,50.04
2022-09-10T17:46:42.893Z,50.53
2022-09-10T17:49:13.346Z,50.76
2022-09-10T17:51:40.739Z,50.20
2022-09-10T17:54:08.538Z,50.40
2022-09-10T17:56:36.855Z,50.31
2022-09-10T17:59:05.118Z,50.80
2022-09-10T18:01:36.400Z,50.35
2022-09-10T18:04:04.445Z,49.76
2022-09-10T18:06:32.547Z,49.47
2022-09-10T18:09:00.915Z,49.49
2022-09-10T18:11:33.599Z,49.17
2022-09-10T18:14:01.138Z,48.96
2022-09-10T18:16:31.346Z,48.70
2022-09-10T18:19:04.523Z,48.79
2022-09-10T18:21:36.756Z,49.74
2022-09-10T18:24:07.326Z,50.26
2022-09-10T18:26:39.565Z,49.77
2022-09-10T18:29:19.440Z,50.57
2022-09-10T18:31:49.453Z,50.16
2022-09-10T18:34:23.556Z,53.67
2022-09-10T18:36:57.655Z,53.78
2022-09-10T18:39:27.488Z,56.16
2022-09-10T18:41:56.331Z,57.78
2022-09-10T18:44:26.430Z,58.91
2022-09-10T18:46:53.717Z,59.67
2022-09-10T18:49:24.497Z,60.01
2022-09-10T18:51:53.196Z,59.99
2022-09-10T18:54:21.466Z,60.29
2022-09-10T18:56:49.647Z,60.98
2022-09-10T18:59:20.416Z,60.76
2022-09-10T19:01:49.254Z,60.10
2022-09-10T19:04:21.887Z,60.35
2022-09-10T19:06:49.917Z,59.54
2022-09-10T19:09:22.555Z,58.36
2022-09-10T19:11:53.159Z,57.94
2022-09-10T19:14:29.494Z,57.45
2022-09-10T19:16:58.167Z,57.18
2022-09-10T19:19:28.016Z,56.59
2022-09-10T19:21:59.744Z,56.07
2022-09-10T19:24:44.172Z,55.82
2022-09-10T19:27:14.336Z,55.91
2022-09-10T19:29:42.424Z,55.70
2022-09-10T19:32:11.528Z,55.40
2022-09-10T19:34:39.225Z,54.79
2022-09-10T19:37:07.636Z,54.65
2022-09-10T19:39:34.731Z,54.20
2022-09-10T19:42:01.925Z,53.96
2022-09-10T19:44:28.894Z,53.93
2022-09-10T19:46:55.805Z,54.19
2022-09-10T19:49:22.744Z,54.35
2022-09-10T19:51:49.728Z,53.81
2022-09-10T19:54:16.730Z,53.75
2022-09-10T19:56:44.102Z,54.04
2022-09-10T19:59:11.307Z,54.14
2022-09-10T20:01:41.349Z,53.68
2022-09-10T20:04:11.615Z,53.79
2022-09-10T20:06:39.250Z,53.71
2022-09-10T20:09:08.444Z,53.98
2022-09-10T20:11:36.151Z,53.55
2022-09-10T20:14:10.365Z,53.93
2022-09-10T20:16:43.889Z,54.09
2022-09-10T20:19:13.849Z,54.27
2022-09-10T20:21:42.535Z,54.68
2022-09-10T20:24:10.445Z,54.81
2022-09-10T20:26:38.764Z,55.20
2022-09-10T20:29:09.866Z,54.98
2022-09-10T20:31:37.363Z,55.47
2022-09-10T20:34:07.159Z,55.47
2022-09-10T20:36:35.497Z,55.55
2022-09-10T20:39:03.143Z,56.09
2022-09-10T20:41:30.650Z,55.53
2022-09-10T20:44:00.183Z,55.68
2022-09-10T20:46:29.163Z,55.27
2022-09-10T20:49:03.664Z,55.34
2022-09-10T20:51:33.325Z,56.22
2022-09-10T20:54:01.039Z,56.83
2022-09-10T20:56:28.107Z,56.75
2022-09-10T20:58:55.925Z,56.82
2022-09-10T21:01:25.257Z,57.31
2022-09-10T21:03:53.765Z,59.01
2022-09-10T21:06:24.746Z,58.70
2022-09-10T21:08:52.042Z,58.35
2022-09-10T21:11:20.691Z,57.98
2022-09-10T21:13:55.975Z,58.02
2022-09-10T21:16:34.265Z,59.16
2022-09-10T21:19:03.753Z,58.76
2022-09-10T21:21:32.936Z,58.73
2022-09-10T21:24:06.542Z,58.58
2022-09-10T21:26:36.203Z,59.06
2022-09-10T21:29:05.324Z,58.87
2022-09-10T21:31:32.424Z,58.62
2022-09-10T21:34:03.406Z,57.75
2022-09-10T21:36:32.344Z,56.91
2022-09-10T21:39:01.955Z,56.82
2022-09-10T21:41:32.025Z,56.32
2022-09-10T21:44:00.536Z,56.18
2022-09-10T21:46:28.063Z,56.17
2022-09-10T21:48:55.456Z,55.59
2022-09-10T21:51:23.195Z,55.42
2022-09-10T21:53:55.059Z,55.66
2022-09-10T21:56:23.266Z,55.07
2022-09-10T21:58:50.156Z,55.20
2022-09-10T22:01:20.139Z,55.05
2022-09-10T22:03:48.374Z,54.67
2022-09-10T22:06:23.257Z,54.84
2022-09-10T22:09:01.653Z,54.17
2022-09-10T22:11:34.295Z,54.46
2022-09-10T22:14:04.633Z,54.05
2022-09-10T22:16:33.545Z,53.50
2022-09-10T22:19:02.788Z,53.47
2022-09-10T22:21:30.203Z,52.97
2022-09-10T22:23:57.445Z,52.94
2022-09-10T22:26:28.388Z,52.13
2022-09-10T22:28:59.470Z,51.75
2022-09-10T22:31:29.580Z,52.09
2022-09-10T22:33:59.426Z,51.64
2022-09-10T22:36:31.918Z,50.60
2022-09-10T22:39:13.545Z,49.83
2022-09-10T22:41:41.743Z,49.61
2022-09-10T22:44:09.366Z,49.65
2022-09-10T22:46:37.787Z,49.57
2022-09-10T22:49:05.714Z,49.24
2022-09-10T22:51:38.634Z,49.32
2022-09-10T22:54:06.363Z,49.48
2022-09-10T22:56:35.992Z,49.76
2022-09-10T22:59:04.477Z,49.83
2022-09-10T23:01:35.716Z,49.24
2022-09-10T23:04:04.233Z,49.80
2022-09-10T23:06:32.590Z,50.40
2022-09-10T23:09:15.698Z,50.96
2022-09-10T23:11:44.657Z,50.25
2022-09-10T23:14:18.031Z,50.22
2022-09-10T23:16:49.984Z,49.93
2022-09-10T23:19:26.164Z,49.31
2022-09-10T23:21:55.038Z,49.64
2022-09-10T23:24:26.597Z,50.27
2022-09-10T23:26:54.056Z,50.89
2022-09-10T23:29:23.165Z,52.99
2022-09-10T23:31:53.592Z,52.61
2022-09-10T23:34:21.582Z,52.67
2022-09-10T23:36:49.284Z,52.71
2022-09-10T23:39:25.222Z,53.73
2022-09-10T23:41:55.394Z,53.56
2022-09-10T23:44:22.833Z,53.59
2022-09-10T23:46:50.263Z,54.06
2022-09-10T23:49:17.273Z,54.04
2022-09-10T23:51:44.410Z,53.91
2022-09-10T23:54:11.814Z,54.21
2022-09-10T23:56:40.225Z,54.88
2022-09-10T23:59:07.645Z,55.36
